Time;durP1;ratioP1;P1;durP2;ratioP2;P2;SDS_P1;SDS_P2;PMS_P1;PMS_P2;Temp;Humidity;BMP_temperature;BMP_pressure;BME280_temperature;BME280_humidity;BME280_pressure;Samples;Min_cycle;Max_cycle;Signal;HPM_P1;HPM_P2
2023/05/08 00:01:41;;;;;;;0.00;0.00;;;;;;;;;;4955711;28;20051;-87
2023/05/08 00:04:07;;;;;;;0.00;0.00;;;;;;;;;;4972163;28;20371;-87
2023/05/08 00:06:32;;;;;;;0.00;0.00;;;;;;;;;;4972127;28;20034;-87
2023/05/08 00:08:58;;;;;;;0.00;0.00;;;;;;;;;;4956028;28;20467;-87
2023/05/08 00:11:24;;;;;;;0.00;0.00;;;;;;;;;;4955459;28;20053;-87
2023/05/08 00:13:50;;;;;;;0.00;0.00;;;;;;;;;;4971780;28;20089;-87
2023/05/08 00:16:16;;;;;;;0.00;0.00;;;;;;;;;;4971694;28;20414;-86
2023/05/08 00:18:42;;;;;;;0.00;0.00;;;;;;;;;;4972021;28;20043;-87
2023/05/08 00:21:08;;;;;;;0.00;0.00;;;;;;;;;;4971591;28;20163;-87
2023/05/08 00:23:34;;;;;;;0.00;0.00;;;;;;;;;;4971866;28;20117;-87
2023/05/08 00:26:00;;;;;;;0.00;0.00;;;;;;;;;;4955678;28;20067;-86
2023/05/08 00:28:26;;;;;;;0.00;0.00;;;;;;;;;;4971550;28;20087;-87
2023/05/08 00:30:53;;;;;;;0.00;0.00;;;;;;;;;;4972412;28;20082;-86
2023/05/08 00:33:19;;;;;;;0.00;0.00;;;;;;;;;;4975078;28;20047;-87
2023/05/08 00:35:45;;;;;;;0.00;0.00;;;;;;;;;;4975312;28;20482;-87
2023/05/08 00:38:11;;;;;;;0.00;0.00;;;;;;;;;;4958832;28;20053;-88
2023/05/08 00:40:37;;;;;;;0.00;0.00;;;;;;;;;;4959396;28;20038;-87
2023/05/08 00:43:03;;;;;;;0.00;0.00;;;;;;;;;;4974779;28;20491;-86
2023/05/08 00:45:32;;;;;;;0.00;0.00;;;;;;;;;;4959250;28;20133;-87
2023/05/08 00:47:59;;;;;;;0.00;0.00;;;;;;;;;;4975062;28;20085;-87
2023/05/08 00:50:25;;;;;;;0.00;0.00;;;;;;;;;;4974900;28;20046;-88
2023/05/08 00:52:52;;;;;;;0.00;0.00;;;;;;;;;;4974668;28;20082;-87
2023/05/08 00:55:18;;;;;;;0.00;0.00;;;;;;;;;;4975070;28;20109;-87
2023/05/08 00:57:45;;;;;;;0.00;0.00;;;;;;;;;;4958749;28;20039;-88
2023/05/08 01:00:12;;;;;;;0.00;0.00;;;;;;;;;;4958825;28;20126;-87
2023/05/08 01:02:39;;;;;;;0.57;0.57;;;;;;;;;;4958625;28;20042;-87
2023/05/08 01:05:06;;;;;;;0.00;0.00;;;;;;;;;;4974924;28;20042;-87
2023/05/08 01:07:32;;;;;;;0.00;0.00;;;;;;;;;;4958970;28;20487;-92
2023/05/08 01:09:58;;;;;;;0.00;0.00;;;;;;;;;;4961843;28;20494;-88
2023/05/08 01:12:35;;;;;;;0.00;0.00;;;;;;;;;;4974397;28;20046;-88
2023/05/08 01:15:20;;;;;;;0.00;0.00;;;;;;;;;;4974687;28;20042;-87
2023/05/08 01:18:01;;;;;;;0.93;0.10;;;;;;;;;;4974263;28;20074;-87
2023/05/08 01:20:41;;;;;;;0.00;0.00;;;;;;;;;;4974710;28;20379;-87
2023/05/08 01:23:23;;;;;;;0.00;0.00;;;;;;;;;;4974174;28;20051;-87
2023/05/08 01:26:01;;;;;;;0.32;0.05;;;;;;;;;;4974548;28;20046;-88
2023/05/08 01:28:36;;;;;;;0.00;0.00;;;;;;;;;;4958038;28;20133;-87
2023/05/08 01:31:07;;;;;;;0.00;0.00;;;;;;;;;;4974244;28;20540;-87
2023/05/08 01:33:42;;;;;;;0.00;0.00;;;;;;;;;;4974364;28;20065;-87
2023/05/08 01:36:08;;;;;;;0.00;0.00;;;;;;;;;;4958590;28;20062;-87
2023/05/08 01:38:40;;;;;;;0.00;0.00;;;;;;;;;;4957917;28;20049;-88
2023/05/08 01:41:11;;;;;;;0.00;0.00;;;;;;;;;;4974075;28;20043;-87
2023/05/08 01:43:42;;;;;;;0.00;0.00;;;;;;;;;;4957592;28;20058;-87
2023/05/08 01:46:12;;;;;;;0.00;0.00;;;;;;;;;;4974201;28;20133;-87
2023/05/08 01:48:44;;;;;;;0.00;0.00;;;;;;;;;;4974093;28;20053;-88
2023/05/08 01:51:16;;;;;;;0.05;0.00;;;;;;;;;;4957839;28;20074;-88
2023/05/08 01:53:44;;;;;;;0.00;0.00;;;;;;;;;;4973693;28;20046;-88
2023/05/08 01:56:13;;;;;;;0.05;0.03;;;;;;;;;;4958035;28;20042;-87
2023/05/08 01:58:39;;;;;;;0.00;0.00;;;;;;;;;;4957421;28;20039;-89
2023/05/08 02:01:05;;;;;;;0.00;0.00;;;;;;;;;;4974074;28;20415;-88
2023/05/08 02:03:33;;;;;;;0.32;0.03;;;;;;;;;;4957409;28;20486;-87
2023/05/08 02:06:00;;;;;;;0.10;0.03;;;;;;;;;;4957422;28;20046;-87
2023/05/08 02:08:27;;;;;;;0.00;0.00;;;;;;;;;;4973337;28;20045;-87
2023/05/08 02:10:54;;;;;;;0.68;0.10;;;;;;;;;;4973771;28;20043;-87
2023/05/08 02:13:22;;;;;;;0.00;0.00;;;;;;;;;;4957090;28;20093;-87
2023/05/08 02:15:49;;;;;;;0.00;0.00;;;;;;;;;;4973897;28;20386;-88
2023/05/08 02:18:15;;;;;;;0.00;0.00;;;;;;;;;;4973108;28;20039;-87
2023/05/08 02:20:41;;;;;;;0.03;0.03;;;;;;;;;;4973278;28;20043;-87
2023/05/08 02:23:08;;;;;;;0.73;0.28;;;;;;;;;;4957474;28;20122;-87
2023/05/08 02:25:34;;;;;;;0.00;0.00;;;;;;;;;;4957396;28;20101;-87
2023/05/08 02:28:00;;;;;;;0.00;0.00;;;;;;;;;;4957086;28;20510;-88
2023/05/08 02:30:27;;;;;;;0.00;0.00;;;;;;;;;;4957021;28;20136;-87
2023/05/08 02:32:53;;;;;;;0.00;0.00;;;;;;;;;;4973046;28;20071;-87
2023/05/08 02:35:20;;;;;;;0.00;0.00;;;;;;;;;;4973246;28;20042;-88
2023/05/08 02:37:51;;;;;;;0.20;0.10;;;;;;;;;;4956976;28;20361;-88
2023/05/08 02:40:18;;;;;;;0.00;0.00;;;;;;;;;;4973113;28;20079;-88
2023/05/08 02:42:45;;;;;;;0.00;0.00;;;;;;;;;;4956790;28;20069;-87
2023/05/08 02:45:11;;;;;;;0.00;0.00;;;;;;;;;;4972914;28;20498;-87
2023/05/08 02:47:37;;;;;;;0.00;0.00;;;;;;;;;;4973012;28;20046;-87
2023/05/08 02:50:09;;;;;;;0.00;0.00;;;;;;;;;;4973182;28;20050;-88
2023/05/08 02:52:42;;;;;;;0.00;0.00;;;;;;;;;;4972909;28;20113;-87
2023/05/08 02:55:14;;;;;;;0.00;0.00;;;;;;;;;;4972750;28;20078;-87
2023/05/08 02:57:50;;;;;;;0.00;0.00;;;;;;;;;;4956964;28;20182;-87
2023/05/08 03:00:17;;;;;;;;;;;;;;;;;;4973244;28;20067;-87
2023/05/08 03:02:52;;;;;;;0.00;0.00;;;;;;;;;;4973006;28;20270;-88
2023/05/08 03:05:38;;;;;;;0.00;0.00;;;;;;;;;;4972957;28;20416;-88
2023/05/08 03:08:06;;;;;;;0.00;0.00;;;;;;;;;;4956165;28;20190;-88
2023/05/08 03:10:34;;;;;;;0.10;0.00;;;;;;;;;;4976478;28;20106;-88
2023/05/08 03:13:02;;;;;;;0.00;0.00;;;;;;;;;;4956506;28;20053;-88
2023/05/08 03:15:33;;;;;;;0.00;0.00;;;;;;;;;;4973006;28;20069;-87
2023/05/08 03:18:02;;;;;;;0.00;0.00;;;;;;;;;;4972675;28;20047;-87
2023/05/08 03:20:31;;;;;;;0.00;0.00;;;;;;;;;;4956706;28;20050;-88
2023/05/08 03:22:57;;;;;;;0.00;0.00;;;;;;;;;;4972453;28;20529;-88
2023/05/08 03:25:24;;;;;;;0.00;0.00;;;;;;;;;;4973604;28;20511;-87
2023/05/08 03:27:51;;;;;;;0.00;0.00;;;;;;;;;;4957956;28;20046;-87
2023/05/08 03:30:18;;;;;;;0.00;0.00;;;;;;;;;;4957864;28;20042;-88
2023/05/08 03:32:44;;;;;;;0.00;0.00;;;;;;;;;;4957317;28;20509;-88
2023/05/08 03:35:10;;;;;;;0.00;0.00;;;;;;;;;;4956560;28;20046;-87
2023/05/08 03:37:37;;;;;;;0.00;0.00;;;;;;;;;;4972643;28;20597;-87
2023/05/08 03:40:03;;;;;;;0.80;0.20;;;;;;;;;;4972183;28;20085;-88
2023/05/08 03:42:30;;;;;;;0.00;0.00;;;;;;;;;;4972102;28;20053;-87
2023/05/08 03:44:57;;;;;;;0.00;0.00;;;;;;;;;;4956276;28;20047;-88
2023/05/08 03:47:25;;;;;;;0.00;0.00;;;;;;;;;;4972482;28;20047;-88
2023/05/08 03:49:51;;;;;;;0.00;0.00;;;;;;;;;;4972319;28;20047;-88
2023/05/08 03:52:17;;;;;;;0.00;0.00;;;;;;;;;;4972433;28;20097;-88
2023/05/08 03:54:43;;;;;;;0.00;0.00;;;;;;;;;;4972266;28;20434;-88
2023/05/08 03:57:10;;;;;;;0.00;0.00;;;;;;;;;;4972377;28;20046;-89
2023/05/08 03:59:39;;;;;;;0.00;0.00;;;;;;;;;;4956140;28;20042;-88
2023/05/08 04:02:11;;;;;;;0.00;0.00;;;;;;;;;;4956500;28;20050;-87
2023/05/08 04:04:41;;;;;;;0.00;0.00;;;;;;;;;;4972073;28;20047;-87
2023/05/08 04:07:13;;;;;;;0.00;0.00;;;;;;;;;;4976665;28;20074;-87
2023/05/08 04:09:43;;;;;;;0.00;0.00;;;;;;;;;;4975857;28;20075;-87
2023/05/08 04:12:15;;;;;;;0.00;0.00;;;;;;;;;;4960017;28;20042;-87
2023/05/08 04:15:05;;;;;;;0.00;0.00;;;;;;;;;;4976028;28;20085;-87
2023/05/08 04:17:38;;;;;;;0.00;0.00;;;;;;;;;;4950064;28;20406;-88
2023/05/08 04:20:06;;;;;;;0.00;0.00;;;;;;;;;;4960025;28;20042;-88
2023/05/08 04:22:33;;;;;;;0.00;0.00;;;;;;;;;;4976219;28;20046;-89
2023/05/08 04:25:00;;;;;;;0.00;0.00;;;;;;;;;;4959502;28;20129;-88
2023/05/08 04:27:27;;;;;;;0.00;0.00;;;;;;;;;;4960209;28;20069;-88
2023/05/08 04:29:53;;;;;;;0.15;0.00;;;;;;;;;;4975476;28;20039;-89
2023/05/08 04:32:20;;;;;;;0.00;0.00;;;;;;;;;;4975625;28;20047;-88
2023/05/08 04:34:46;;;;;;;0.00;0.00;;;;;;;;;;4975378;28;20047;-88
2023/05/08 04:37:22;;;;;;;0.00;0.00;;;;;;;;;;4959356;28;20039;-89
2023/05/08 04:39:50;;;;;;;0.00;0.00;;;;;;;;;;4975181;28;20054;-88
2023/05/08 04:42:16;;;;;;;0.00;0.00;;;;;;;;;;4976208;28;20446;-88
2023/05/08 04:44:42;;;;;;;0.15;0.00;;;;;;;;;;4974861;28;20062;-88
2023/05/08 04:47:08;;;;;;;0.00;0.00;;;;;;;;;;4959109;28;20038;-87
2023/05/08 04:49:34;;;;;;;0.00;0.00;;;;;;;;;;4958888;28;20373;-88
2023/05/08 04:52:00;;;;;;;0.00;0.00;;;;;;;;;;4975364;28;20046;-88
2023/05/08 04:54:26;;;;;;;0.00;0.00;;;;;;;;;;4975057;28;20390;-88
2023/05/08 04:56:52;;;;;;;0.00;0.00;;;;;;;;;;4959034;28;20039;-88
2023/05/08 04:59:18;;;;;;;0.00;0.00;;;;;;;;;;4958769;28;20085;-88
2023/05/08 05:01:46;;;;;;;0.45;0.17;;;;;;;;;;4974885;28;20406;-87
2023/05/08 05:04:12;;;;;;;0.13;0.08;;;;;;;;;;4958475;28;20039;-87
2023/05/08 05:06:38;;;;;;;0.00;0.00;;;;;;;;;;4958723;28;20042;-88
2023/05/08 05:09:04;;;;;;;0.10;0.10;;;;;;;;;;4960922;28;20114;-87
2023/05/08 05:11:30;;;;;;;0.00;0.00;;;;;;;;;;4974740;28;20041;-88
2023/05/08 05:13:57;;;;;;;0.00;0.00;;;;;;;;;;4974401;28;20043;-88
2023/05/08 05:16:22;;;;;;;0.00;0.00;;;;;;;;;;4974487;28;20085;-87
2023/05/08 05:18:48;;;;;;;0.00;0.00;;;;;;;;;;4974435;28;20475;-88
2023/05/08 05:21:15;;;;;;;0.00;0.00;;;;;;;;;;4974596;28;20042;-87
2023/05/08 05:23:41;;;;;;;0.00;0.00;;;;;;;;;;4974286;28;20494;-87
2023/05/08 05:26:07;;;;;;;0.00;0.00;;;;;;;;;;4974260;28;20042;-87
2023/05/08 05:28:33;;;;;;;0.93;0.93;;;;;;;;;;4958310;28;20043;-88
2023/05/08 05:30:59;;;;;;;0.00;0.00;;;;;;;;;;4958079;28;20505;-87
2023/05/08 05:33:25;;;;;;;0.00;0.00;;;;;;;;;;4974278;28;20039;-87
2023/05/08 05:35:51;;;;;;;0.00;0.00;;;;;;;;;;4974555;28;20068;-87
2023/05/08 05:38:17;;;;;;;0.00;0.00;;;;;;;;;;4958511;28;20561;-87
2023/05/08 05:40:43;;;;;;;0.00;0.00;;;;;;;;;;4974302;28;20042;-87
2023/05/08 05:43:09;;;;;;;0.00;0.00;;;;;;;;;;4958322;28;20435;-87
2023/05/08 05:45:35;;;;;;;0.00;0.00;;;;;;;;;;4974192;28;20402;-86
2023/05/08 05:48:01;;;;;;;0.25;0.10;;;;;;;;;;4974830;28;20077;-87
2023/05/08 05:50:28;;;;;;;0.00;0.00;;;;;;;;;;4958068;28;20498;-87
2023/05/08 05:52:54;;;;;;;0.00;0.00;;;;;;;;;;4958014;28;20125;-88
2023/05/08 05:55:20;;;;;;;0.00;0.00;;;;;;;;;;4973901;28;20043;-87
2023/05/08 05:57:47;;;;;;;0.35;0.00;;;;;;;;;;4958099;28;20043;-87
2023/05/08 06:00:13;;;;;;;0.00;0.00;;;;;;;;;;4974090;28;20400;-87
2023/05/08 06:02:40;;;;;;;0.00;0.00;;;;;;;;;;4974208;28;20038;-88
2023/05/08 06:05:06;;;;;;;0.00;0.00;;;;;;;;;;4974066;28;20052;-87
2023/05/08 06:07:33;;;;;;;0.00;0.00;;;;;;;;;;4973910;28;20090;-87
2023/05/08 06:09:59;;;;;;;0.00;0.00;;;;;;;;;;4957495;28;20047;-87
2023/05/08 06:12:26;;;;;;;0.00;0.00;;;;;;;;;;4982701;28;20046;-87
2023/05/08 06:14:52;;;;;;;1.65;0.00;;;;;;;;;;4977064;28;20210;-87
2023/05/08 06:17:18;;;;;;;0.00;0.00;;;;;;;;;;4993215;28;20490;-87
2023/05/08 06:19:52;;;;;;;0.00;0.00;;;;;;;;;;4993116;28;20086;-86
2023/05/08 06:22:23;;;;;;;0.00;0.00;;;;;;;;;;4993167;28;20096;-86
2023/05/08 06:24:54;;;;;;;0.00;0.00;;;;;;;;;;4976944;28;20042;-87
2023/05/08 06:27:24;;;;;;;0.00;0.00;;;;;;;;;;4993079;28;20498;-87
2023/05/08 06:29:51;;;;;;;0.00;0.00;;;;;;;;;;4991877;28;20069;-87
2023/05/08 06:32:18;;;;;;;0.00;0.00;;;;;;;;;;4992916;28;20046;-87
2023/05/08 06:34:44;;;;;;;0.00;0.00;;;;;;;;;;4976654;28;20466;-86
2023/05/08 06:37:11;;;;;;;0.00;0.00;;;;;;;;;;4992654;28;20397;-85
2023/05/08 06:39:37;;;;;;;0.00;0.00;;;;;;;;;;4977024;28;20046;-85
2023/05/08 06:42:06;;;;;;;0.00;0.00;;;;;;;;;;4992489;28;20145;-85
2023/05/08 06:44:32;;;;;;;0.00;0.00;;;;;;;;;;4992573;28;20076;-85
2023/05/08 06:47:00;;;;;;;0.00;0.00;;;;;;;;;;4992311;28;20417;-86
2023/05/08 06:49:26;;;;;;;0.00;0.00;;;;;;;;;;4992404;28;20474;-86
2023/05/08 06:51:52;;;;;;;0.00;0.00;;;;;;;;;;4976320;28;20073;-86
2023/05/08 06:54:18;;;;;;;0.52;0.10;;;;;;;;;;4992523;28;20034;-85
2023/05/08 06:56:44;;;;;;;0.00;0.00;;;;;;;;;;4975903;28;20034;-85
2023/05/08 06:59:10;;;;;;;0.17;0.05;;;;;;;;;;4992390;28;20383;-86
2023/05/08 07:01:36;;;;;;;0.00;0.00;;;;;;;;;;4992262;28;20096;-87
2023/05/08 07:04:03;;;;;;;0.00;0.00;;;;;;;;;;4976244;28;20042;-86
2023/05/08 07:06:33;;;;;;;0.00;0.00;;;;;;;;;;4992003;28;20042;-85
2023/05/08 07:08:59;;;;;;;0.00;0.00;;;;;;;;;;4992780;28;20048;-85
2023/05/08 07:11:25;;;;;;;0.00;0.00;;;;;;;;;;4991953;28;20042;-85
2023/05/08 07:13:51;;;;;;;0.10;0.00;;;;;;;;;;4993558;28;20058;-85
2023/05/08 07:16:17;;;;;;;0.00;0.00;;;;;;;;;;4991544;28;20117;-85
2023/05/08 07:18:43;;;;;;;0.00;0.00;;;;;;;;;;4976237;28;20034;-86
2023/05/08 07:21:09;;;;;;;0.00;0.00;;;;;;;;;;4991498;28;20037;-87
2023/05/08 07:23:35;;;;;;;0.00;0.00;;;;;;;;;;4991999;28;20038;-86
2023/05/08 07:26:01;;;;;;;1.20;0.08;;;;;;;;;;4991902;28;20464;-86
2023/05/08 07:28:27;;;;;;;0.00;0.00;;;;;;;;;;4975659;28;20198;-85
2023/05/08 07:30:53;;;;;;;0.30;0.00;;;;;;;;;;4991473;28;20287;-85
2023/05/08 07:33:19;;;;;;;0.30;0.00;;;;;;;;;;4991653;28;20371;-85
2023/05/08 07:35:46;;;;;;;0.00;0.00;;;;;;;;;;4991515;28;20089;-85
2023/05/08 07:38:11;;;;;;;0.00;0.00;;;;;;;;;;4991627;28;20088;-85
2023/05/08 07:40:37;;;;;;;0.00;0.00;;;;;;;;;;4993231;28;20125;-85
2023/05/08 07:43:03;;;;;;;0.00;0.00;;;;;;;;;;4979472;28;20066;-86
2023/05/08 07:45:30;;;;;;;0.00;0.00;;;;;;;;;;4979519;28;20505;-86
2023/05/08 07:47:56;;;;;;;0.00;0.00;;;;;;;;;;4979974;28;20070;-85
2023/05/08 07:50:23;;;;;;;0.22;0.00;;;;;;;;;;4995819;28;20061;-86
2023/05/08 07:52:49;;;;;;;0.00;0.00;;;;;;;;;;4995405;28;20129;-86
2023/05/08 07:55:16;;;;;;;0.00;0.00;;;;;;;;;;4979411;28;20038;-86
2023/05/08 07:57:43;;;;;;;0.17;0.10;;;;;;;;;;4995418;28;20038;-87
2023/05/08 08:00:10;;;;;;;0.00;0.00;;;;;;;;;;4979345;28;20038;-85
2023/05/08 08:02:36;;;;;;;0.00;0.00;;;;;;;;;;4979202;28;20038;-87
2023/05/08 08:05:03;;;;;;;0.00;0.00;;;;;;;;;;4979422;28;20054;-86
2023/05/08 08:07:31;;;;;;;0.00;0.00;;;;;;;;;;4995190;28;20052;-87
2023/05/08 08:09:59;;;;;;;0.00;0.00;;;;;;;;;;4979320;28;20378;-86
2023/05/08 08:12:25;;;;;;;0.00;0.00;;;;;;;;;;4995045;28;20047;-87
2023/05/08 08:14:52;;;;;;;0.00;0.00;;;;;;;;;;4995617;28;20046;-87
2023/05/08 08:17:18;;;;;;;0.10;0.00;;;;;;;;;;4995324;28;20045;-87
2023/05/08 08:19:44;;;;;;;0.00;0.00;;;;;;;;;;4991747;28;20037;-85
2023/05/08 08:22:10;;;;;;;0.10;0.00;;;;;;;;;;5014784;28;20454;-85
2023/05/08 08:24:36;;;;;;;0.00;0.00;;;;;;;;;;5003181;28;20073;-86
2023/05/08 08:27:03;;;;;;;0.00;0.00;;;;;;;;;;4972712;28;20046;-85
2023/05/08 08:29:29;;;;;;;0.00;0.00;;;;;;;;;;4979703;28;20047;-87
2023/05/08 08:31:55;;;;;;;0.00;0.00;;;;;;;;;;4968211;28;20437;-86
2023/05/08 08:34:21;;;;;;;0.00;0.00;;;;;;;;;;4979448;28;20382;-86
2023/05/08 08:36:47;;;;;;;0.00;0.00;;;;;;;;;;4994871;28;20409;-86
2023/05/08 08:39:13;;;;;;;0.00;0.00;;;;;;;;;;4978592;28;20464;-86
2023/05/08 08:41:39;;;;;;;0.30;0.10;;;;;;;;;;4994542;28;20125;-86
2023/05/08 08:44:05;;;;;;;0.00;0.00;;;;;;;;;;4995094;28;20137;-87
2023/05/08 08:46:34;;;;;;;0.00;0.00;;;;;;;;;;4995541;28;20049;-86
2023/05/08 08:49:03;;;;;;;0.00;0.00;;;;;;;;;;4978871;28;20108;-87
2023/05/08 08:51:36;;;;;;;0.00;0.00;;;;;;;;;;4993895;28;20375;-87
2023/05/08 08:54:12;;;;;;;0.10;0.10;;;;;;;;;;4994844;28;20069;-86
2023/05/08 08:56:41;;;;;;;0.00;0.00;;;;;;;;;;4994863;28;20084;-86
2023/05/08 08:59:08;;;;;;;0.57;0.47;;;;;;;;;;4978403;28;20034;-87
2023/05/08 09:01:37;;;;;;;0.00;0.00;;;;;;;;;;4978068;28;20564;-87
2023/05/08 09:04:04;;;;;;;0.00;0.00;;;;;;;;;;4978528;28;20050;-87
2023/05/08 09:06:30;;;;;;;0.00;0.00;;;;;;;;;;4994424;28;20389;-87
2023/05/08 09:08:59;;;;;;;0.00;0.00;;;;;;;;;;4994316;28;20042;-87
2023/05/08 09:11:25;;;;;;;0.25;0.10;;;;;;;;;;4978058;28;20077;-87
2023/05/08 09:13:51;;;;;;;0.00;0.00;;;;;;;;;;4994198;28;20046;-88
2023/05/08 09:16:17;;;;;;;0.00;0.00;;;;;;;;;;4994343;28;20034;-87
2023/05/08 09:18:43;;;;;;;0.52;0.30;;;;;;;;;;4996932;28;20035;-86
2023/05/08 09:21:09;;;;;;;0.00;0.00;;;;;;;;;;4994493;28;20054;-86
2023/05/08 09:23:35;;;;;;;0.15;0.08;;;;;;;;;;4978177;28;20038;-86
2023/05/08 09:26:02;;;;;;;0.00;0.00;;;;;;;;;;4977820;28;20050;-86
2023/05/08 09:28:28;;;;;;;0.00;0.00;;;;;;;;;;4993899;28;20057;-87
2023/05/08 09:30:57;;;;;;;0.20;0.10;;;;;;;;;;4993792;28;20118;-87
2023/05/08 09:33:24;;;;;;;0.00;0.00;;;;;;;;;;4993737;28;20085;-87
2023/05/08 09:35:51;;;;;;;0.00;0.00;;;;;;;;;;4978046;28;20042;-87
2023/05/08 09:38:36;;;;;;;0.00;0.00;;;;;;;;;;4993749;28;20480;-87
2023/05/08 09:41:06;;;;;;;0.00;0.00;;;;;;;;;;4977378;28;20375;-87
2023/05/08 09:43:32;;;;;;;0.00;0.00;;;;;;;;;;4993257;28;20054;-86
2023/05/08 09:46:22;;;;;;;0.00;0.00;;;;;;;;;;4993737;28;20053;-87
2023/05/08 09:48:51;;;;;;;0.00;0.00;;;;;;;;;;4993791;28;20153;-87
2023/05/08 09:51:17;;;;;;;0.00;0.00;;;;;;;;;;4977218;28;20042;-87
2023/05/08 09:53:44;;;;;;;0.47;0.30;;;;;;;;;;4993415;28;20089;-88
2023/05/08 09:56:10;;;;;;;0.08;0.08;;;;;;;;;;4977471;28;20474;-87
2023/05/08 09:58:39;;;;;;;0.03;0.00;;;;;;;;;;4993359;28;20039;-87
2023/05/08 10:01:06;;;;;;;0.00;0.00;;;;;;;;;;4993307;28;20049;-86
2023/05/08 10:03:48;;;;;;;0.00;0.00;;;;;;;;;;4993023;28;20073;-87
2023/05/08 10:06:15;;;;;;;0.00;0.00;;;;;;;;;;4993419;28;20074;-88
2023/05/08 10:08:45;;;;;;;0.00;0.00;;;;;;;;;;4993022;28;20128;-86
2023/05/08 10:11:15;;;;;;;0.00;0.00;;;;;;;;;;4993743;28;20512;-89
2023/05/08 10:13:43;;;;;;;0.00;0.00;;;;;;;;;;4976745;28;20133;-92
2023/05/08 10:16:10;;;;;;;0.00;0.00;;;;;;;;;;4993468;28;20039;-87
2023/05/08 10:18:37;;;;;;;0.10;0.00;;;;;;;;;;4993055;28;20535;-88
2023/05/08 10:21:04;;;;;;;0.03;0.03;;;;;;;;;;4992951;28;20041;-87
2023/05/08 10:23:33;;;;;;;0.00;0.00;;;;;;;;;;4993061;28;20370;-87
2023/05/08 10:26:05;;;;;;;0.77;0.10;;;;;;;;;;4993061;28;20044;-87
2023/05/08 10:28:46;;;;;;;0.00;0.00;;;;;;;;;;4992647;28;20046;-87
2023/05/08 10:31:14;;;;;;;1.88;0.45;;;;;;;;;;4992858;28;20042;-88
2023/05/08 10:33:44;;;;;;;0.00;0.00;;;;;;;;;;4992502;28;20042;-93
2023/05/08 10:36:12;;;;;;;0.00;0.00;;;;;;;;;;4976718;28;20129;-86
2023/05/08 10:38:39;;;;;;;0.00;0.00;;;;;;;;;;4976336;28;20490;-86
2023/05/08 10:41:05;;;;;;;0.00;0.00;;;;;;;;;;4992861;28;20038;-89
2023/05/08 10:43:31;;;;;;;0.00;0.00;;;;;;;;;;4992428;28;20062;-86
2023/05/08 10:45:58;;;;;;;0.15;0.15;;;;;;;;;;4993175;28;20042;-86
2023/05/08 10:48:28;;;;;;;0.00;0.00;;;;;;;;;;4992641;28;20042;-88
2023/05/08 10:51:05;;;;;;;0.05;0.00;;;;;;;;;;4992503;28;20046;-87
2023/05/08 10:53:52;;;;;;;0.00;0.00;;;;;;;;;;4992470;28;20077;-86
2023/05/08 10:56:25;;;;;;;0.30;0.20;;;;;;;;;;4992745;28;20081;-87
2023/05/08 10:58:54;;;;;;;0.55;0.10;;;;;;;;;;4992208;28;20042;-87
2023/05/08 11:01:20;;;;;;;0.00;0.00;;;;;;;;;;4992504;28;20129;-86
2023/05/08 11:03:49;;;;;;;0.00;0.00;;;;;;;;;;4992296;28;20216;-87
2023/05/08 11:06:15;;;;;;;0.00;0.00;;;;;;;;;;4992266;28;20387;-86
2023/05/08 11:08:54;;;;;;;0.20;0.20;;;;;;;;;;4992081;28;20096;-86
2023/05/08 11:11:25;;;;;;;0.52;0.00;;;;;;;;;;4976277;28;20046;-86
2023/05/08 11:13:58;;;;;;;0.00;0.00;;;;;;;;;;4991847;28;20136;-86
2023/05/08 11:16:42;;;;;;;0.00;0.00;;;;;;;;;;4991530;28;20050;-85
2023/05/08 11:19:15;;;;;;;0.90;0.53;;;;;;;;;;4991528;28;20071;-86
2023/05/08 11:22:01;;;;;;;0.32;0.05;;;;;;;;;;4992258;28;20050;-86
2023/05/08 11:24:35;;;;;;;0.00;0.00;;;;;;;;;;4975223;28;20133;-86
2023/05/08 11:27:01;;;;;;;0.00;0.00;;;;;;;;;;4993173;28;20498;-86
2023/05/08 11:29:27;;;;;;;0.00;0.00;;;;;;;;;;4991728;28;20052;-85
2023/05/08 11:31:53;;;;;;;0.00;0.00;;;;;;;;;;4992030;28;20038;-85
2023/05/08 11:34:49;;;;;;;0.00;0.00;;;;;;;;;;4991585;28;20077;-85
2023/05/08 11:37:19;;;;;;;0.00;0.00;;;;;;;;;;4975866;28;20437;-85
2023/05/08 11:39:46;;;;;;;0.00;0.00;;;;;;;;;;4991610;28;20089;-84
2023/05/08 11:42:24;;;;;;;0.00;0.00;;;;;;;;;;4991821;28;20043;-85
2023/05/08 11:45:07;;;;;;;0.00;0.00;;;;;;;;;;4991306;28;20066;-85
2023/05/08 11:47:40;;;;;;;0.00;0.00;;;;;;;;;;4991757;28;20133;-84
2023/05/08 11:50:07;;;;;;;0.13;0.03;;;;;;;;;;4991883;28;20422;-85
2023/05/08 11:52:34;;;;;;;0.00;0.00;;;;;;;;;;4991756;28;20038;-85
2023/05/08 11:55:04;;;;;;;0.28;0.28;;;;;;;;;;4992731;28;20501;-85
2023/05/08 11:57:34;;;;;;;0.05;0.00;;;;;;;;;;4991545;28;20038;-85
2023/05/08 12:00:18;;;;;;;0.00;0.00;;;;;;;;;;4991300;28;20073;-83
2023/05/08 12:02:45;;;;;;;0.00;0.00;;;;;;;;;;4975434;28;20093;-86
2023/05/08 12:05:11;;;;;;;0.00;0.00;;;;;;;;;;4975547;28;20520;-85
2023/05/08 12:07:45;;;;;;;0.00;0.00;;;;;;;;;;4991641;28;20046;-86
2023/05/08 12:10:11;;;;;;;0.38;0.13;;;;;;;;;;4991215;28;20452;-85
2023/05/08 12:12:37;;;;;;;0.20;0.00;;;;;;;;;;4991212;28;20053;-85
2023/05/08 12:15:11;;;;;;;0.00;0.00;;;;;;;;;;4974866;28;20042;-85
2023/05/08 12:17:37;;;;;;;0.10;0.00;;;;;;;;;;4991493;28;20093;-84
2023/05/08 12:20:13;;;;;;;0.00;0.00;;;;;;;;;;4991135;28;20057;-84
2023/05/08 12:22:40;;;;;;;0.00;0.00;;;;;;;;;;4975092;28;20084;-84
2023/05/08 12:25:07;;;;;;;0.00;0.00;;;;;;;;;;4992050;28;20038;-84
2023/05/08 12:27:35;;;;;;;0.00;0.00;;;;;;;;;;4994485;28;20057;-84
2023/05/08 12:30:06;;;;;;;0.03;0.00;;;;;;;;;;4995127;28;20188;-84
2023/05/08 12:32:32;;;;;;;0.15;0.00;;;;;;;;;;4996370;28;20461;-84
2023/05/08 12:34:58;;;;;;;0.20;0.00;;;;;;;;;;4994954;28;20331;-83
2023/05/08 12:37:27;;;;;;;0.00;0.00;;;;;;;;;;4995091;28;20034;-84
2023/05/08 12:39:53;;;;;;;0.22;0.13;;;;;;;;;;4994615;28;20371;-84
2023/05/08 12:42:20;;;;;;;0.00;0.00;;;;;;;;;;4978698;28;20153;-84
2023/05/08 12:44:52;;;;;;;0.00;0.00;;;;;;;;;;4995808;28;20058;-84
2023/05/08 12:47:19;;;;;;;0.00;0.00;;;;;;;;;;4994710;28;20125;-84
2023/05/08 12:49:48;;;;;;;0.00;0.00;;;;;;;;;;4994518;28;20386;-84
2023/05/08 12:52:14;;;;;;;0.00;0.00;;;;;;;;;;4978650;28;20076;-84
2023/05/08 12:54:47;;;;;;;0.00;0.00;;;;;;;;;;4994473;28;20038;-84
2023/05/08 12:57:14;;;;;;;0.80;0.20;;;;;;;;;;4994576;28;20046;-84
2023/05/08 12:59:40;;;;;;;0.00;0.00;;;;;;;;;;4994350;28;20049;-86
2023/05/08 13:02:17;;;;;;;0.00;0.00;;;;;;;;;;4978436;28;20046;-85
2023/05/08 13:04:44;;;;;;;0.00;0.00;;;;;;;;;;4994413;28;20043;-85
2023/05/08 13:07:10;;;;;;;0.00;0.00;;;;;;;;;;4995679;28;20520;-85
2023/05/08 13:09:36;;;;;;;0.00;0.00;;;;;;;;;;4994025;28;20042;-85
2023/05/08 13:12:02;;;;;;;0.13;0.00;;;;;;;;;;4994269;28;20038;-84
2023/05/08 13:14:28;;;;;;;0.00;0.00;;;;;;;;;;4994194;28;20050;-85
2023/05/08 13:16:54;;;;;;;0.00;0.00;;;;;;;;;;4994603;28;20188;-84
2023/05/08 13:19:20;;;;;;;0.00;0.00;;;;;;;;;;4995111;28;20042;-84
2023/05/08 13:21:46;;;;;;;0.00;0.00;;;;;;;;;;4994159;28;20351;-84
2023/05/08 13:24:13;;;;;;;0.00;0.00;;;;;;;;;;4994087;28;20128;-85
2023/05/08 13:26:39;;;;;;;0.52;0.38;;;;;;;;;;4994215;28;20053;-85
2023/05/08 13:29:05;;;;;;;0.00;0.00;;;;;;;;;;4994015;28;20046;-84
2023/05/08 13:31:31;;;;;;;0.00;0.00;;;;;;;;;;4993988;28;20042;-84
2023/05/08 13:33:57;;;;;;;0.00;0.00;;;;;;;;;;4993577;28;20383;-84
2023/05/08 13:36:23;;;;;;;0.00;0.00;;;;;;;;;;4994273;28;20074;-84
2023/05/08 13:38:53;;;;;;;0.00;0.00;;;;;;;;;;4993270;28;20038;-84
2023/05/08 13:41:19;;;;;;;0.20;0.00;;;;;;;;;;4995031;28;20047;-85
2023/05/08 13:43:45;;;;;;;0.00;0.00;;;;;;;;;;4995247;28;20374;-83
2023/05/08 13:46:11;;;;;;;0.00;0.00;;;;;;;;;;4993333;28;20050;-84
2023/05/08 13:48:36;;;;;;;0.00;0.00;;;;;;;;;;4994000;28;20042;-84
2023/05/08 13:51:02;;;;;;;0.00;0.00;;;;;;;;;;4993284;28;20046;-85
2023/05/08 13:53:29;;;;;;;0.00;0.00;;;;;;;;;;4994895;28;20046;-84
2023/05/08 13:55:55;;;;;;;0.00;0.00;;;;;;;;;;4993508;28;20049;-84
2023/05/08 13:58:21;;;;;;;0.00;0.00;;;;;;;;;;4993991;28;20157;-84
2023/05/08 14:00:48;;;;;;;0.00;0.00;;;;;;;;;;4993168;28;20121;-84
2023/05/08 14:03:14;;;;;;;0.00;0.00;;;;;;;;;;4993495;28;20457;-84
2023/05/08 14:05:40;;;;;;;0.00;0.00;;;;;;;;;;4993031;28;20129;-84
2023/05/08 14:08:06;;;;;;;0.00;0.00;;;;;;;;;;4993250;28;20104;-84
2023/05/08 14:10:32;;;;;;;0.00;0.00;;;;;;;;;;4992923;28;20077;-84
2023/05/08 14:12:58;;;;;;;0.00;0.00;;;;;;;;;;4976683;28;20053;-84
2023/05/08 14:15:25;;;;;;;0.00;0.00;;;;;;;;;;4993136;28;20038;-84
2023/05/08 14:17:51;;;;;;;0.00;0.00;;;;;;;;;;4992934;28;20486;-85
2023/05/08 14:20:17;;;;;;;0.00;0.00;;;;;;;;;;4992546;28;20045;-83
2023/05/08 14:22:43;;;;;;;0.00;0.00;;;;;;;;;;4992852;28;20129;-83
2023/05/08 14:25:09;;;;;;;0.00;0.00;;;;;;;;;;4992406;28;20157;-83
2023/05/08 14:27:35;;;;;;;0.00;0.00;;;;;;;;;;4992895;28;20050;-83
2023/05/08 14:30:01;;;;;;;0.00;0.00;;;;;;;;;;4993813;28;20057;-83
2023/05/08 14:32:27;;;;;;;0.00;0.00;;;;;;;;;;4992548;28;20394;-83
2023/05/08 14:34:53;;;;;;;0.00;0.00;;;;;;;;;;4993718;28;20045;-83
2023/05/08 14:37:19;;;;;;;0.00;0.00;;;;;;;;;;4992389;28;20355;-83
2023/05/08 14:39:45;;;;;;;0.00;0.00;;;;;;;;;;4992147;28;20145;-84
2023/05/08 14:42:11;;;;;;;0.00;0.00;;;;;;;;;;4993692;28;20038;-84
2023/05/08 14:44:37;;;;;;;0.25;0.25;;;;;;;;;;4992244;28;20426;-84
2023/05/08 14:47:03;;;;;;;0.00;0.00;;;;;;;;;;4976042;28;20038;-83
2023/05/08 14:49:31;;;;;;;0.00;0.00;;;;;;;;;;4991619;28;20101;-84